createdAt,value
2022-10-13T20:47:15.926Z,96864.91
2022-10-13T20:49:42.315Z,96858.22
2022-10-13T20:52:08.687Z,96855.91
2022-10-13T20:54:35.061Z,96855.44
2022-10-13T20:57:01.437Z,96848.03
2022-10-13T20:59:27.814Z,96848.41
2022-10-13T21:01:54.191Z,96850.53
2022-10-13T21:04:20.551Z,96860.09
2022-10-13T21:06:46.945Z,96868.25
2022-10-13T21:09:13.309Z,96856.84
2022-10-13T21:11:39.705Z,96859.94
2022-10-13T21:14:06.080Z,96859.31
2022-10-13T21:16:32.444Z,96848.94
2022-10-13T21:18:58.821Z,96855.44
2022-10-13T21:21:25.178Z,96856.66
2022-10-13T21:23:51.564Z,96858.50
2022-10-13T21:26:21.632Z,96856.72
2022-10-13T21:28:48.603Z,96847.16
2022-10-13T21:31:15.019Z,96852.00
2022-10-13T21:33:41.389Z,96840.97
2022-10-13T21:36:07.750Z,96840.97
2022-10-13T21:38:34.120Z,96840.47
2022-10-13T21:41:00.480Z,96839.06
2022-10-13T21:43:26.840Z,96845.81
2022-10-13T21:45:53.210Z,96841.16
2022-10-13T21:48:19.568Z,96838.91
2022-10-13T21:50:45.935Z,96840.38
2022-10-13T21:53:12.306Z,96846.81
2022-10-13T21:55:38.662Z,96851.38
2022-10-13T21:58:05.464Z,96850.47
2022-10-13T22:00:31.994Z,96851.94
2022-10-13T22:02:58.376Z,96855.03
2022-10-13T22:05:24.746Z,96845.81
2022-10-13T22:07:51.122Z,96853.16
2022-10-13T22:10:17.487Z,96848.09
2022-10-13T22:12:43.835Z,96845.47
2022-10-13T22:15:10.204Z,96850.53
2022-10-13T22:17:36.574Z,96848.97
2022-10-13T22:20:02.936Z,96850.03
2022-10-13T22:22:31.073Z,96850.38
2022-10-13T22:24:57.595Z,96850.38
2022-10-13T22:27:24.030Z,96844.69
2022-10-13T22:29:50.396Z,96834.44
2022-10-13T22:32:16.767Z,96836.75
2022-10-13T22:34:43.128Z,96840.47
2022-10-13T22:37:09.493Z,96839.84
2022-10-13T22:39:35.859Z,96835.97
2022-10-13T22:42:02.230Z,96835.97
2022-10-13T22:44:28.593Z,96837.13
2022-10-13T22:46:54.943Z,96837.13
2022-10-13T22:49:21.313Z,96833.72
2022-10-13T22:51:47.684Z,96830.84
2022-10-13T22:54:14.046Z,96829.78
2022-10-13T22:56:40.420Z,96823.69
2022-10-13T22:59:06.786Z,96819.13
2022-10-13T23:01:33.167Z,96827.56
2022-10-13T23:03:59.592Z,96818.78
2022-10-13T23:06:26.015Z,96816.88
2022-10-13T23:08:52.363Z,96808.50
2022-10-13T23:11:18.725Z,96811.81
2022-10-13T23:13:45.095Z,96806.19
2022-10-13T23:16:11.475Z,96809.97
2022-10-13T23:18:37.842Z,96802.41
2022-10-13T23:21:04.220Z,96799.72
2022-10-13T23:23:30.584Z,96806.25
2022-10-13T23:25:56.936Z,96797.75
2022-10-13T23:28:23.366Z,96800.91
2022-10-13T23:30:49.773Z,96793.66
2022-10-13T23:33:16.136Z,96796.63
2022-10-13T23:35:42.502Z,96797.41
2022-10-13T23:38:08.869Z,96798.56
2022-10-13T23:40:35.246Z,96804.59
2022-10-13T23:43:01.627Z,96806.81
2022-10-13T23:45:27.987Z,96805.34
2022-10-13T23:47:54.349Z,96800.69
2022-10-13T23:50:20.733Z,96798.94
2022-10-13T23:52:47.092Z,96803.81
2022-10-13T23:55:13.458Z,96785.50
2022-10-13T23:57:39.838Z,96796.63
